createdAt,value
2022-08-11T00:01:33.495Z,3.1
2022-08-11T00:07:17.058Z,3.6
2022-08-11T00:13:01.781Z,2.7
2022-08-11T00:18:47.194Z,2.5
2022-08-11T00:24:53.828Z,2.9
2022-08-11T00:30:40.150Z,3.7
2022-08-11T00:36:28.419Z,2
2022-08-11T00:42:17.850Z,2.9
2022-08-11T00:48:08.026Z,2.9
2022-08-11T00:53:57.611Z,2.2
2022-08-11T00:59:54.675Z,2.1
2022-08-11T01:05:47.138Z,4.3
2022-08-11T01:11:57.427Z,2.3
2022-08-11T01:18:00.956Z,3.1
2022-08-11T01:23:56.994Z,2.9
2022-08-11T01:29:52.275Z,4
2022-08-11T01:35:43.736Z,2.6
2022-08-11T01:41:38.194Z,2.6
2022-08-11T01:47:30.279Z,2.8
2022-08-11T01:53:23.919Z,2.1
2022-08-11T01:59:12.107Z,2.4
2022-08-11T02:04:58.840Z,3.6
2022-08-11T02:10:54.457Z,3.6
2022-08-11T02:16:45.356Z,2.4
2022-08-11T02:22:34.222Z,2.4
2022-08-11T02:28:22.144Z,3.9
2022-08-11T02:34:09.551Z,2.3
2022-08-11T02:39:58.184Z,3.1
2022-08-11T02:45:44.678Z,2.8
2022-08-11T02:51:35.142Z,3.6
2022-08-11T02:57:23.275Z,2.9
2022-08-11T03:03:12.602Z,2.6
2022-08-11T03:09:02.954Z,2.7
2022-08-11T03:14:50.889Z,3.1
2022-08-11T03:20:44.520Z,3.1
2022-08-11T03:26:34.481Z,2.8
2022-08-11T03:32:22.830Z,2.7
2022-08-11T03:38:09.455Z,2.1
2022-08-11T03:44:00.814Z,2.9
2022-08-11T03:49:49.494Z,5
2022-08-11T03:55:39.747Z,2.7
2022-08-11T04:01:34.782Z,4.2
2022-08-11T04:07:35.078Z,2.8
2022-08-11T04:13:38.354Z,2.4
2022-08-11T04:19:32.722Z,2.4
2022-08-11T04:25:31.593Z,3
2022-08-11T04:31:43.963Z,2.8
2022-08-11T04:37:40.045Z,6.1
2022-08-11T04:44:02.283Z,5.9
2022-08-11T04:50:03.623Z,6.1
2022-08-11T04:55:55.234Z,5.6
2022-08-11T05:01:42.976Z,6
2022-08-11T05:07:37.751Z,5.4
2022-08-11T05:13:30.734Z,7.1
2022-08-11T05:19:19.232Z,6.3
2022-08-11T05:25:07.041Z,4.6
2022-08-11T05:30:53.010Z,6.6
2022-08-11T05:36:40.023Z,6.6
2022-08-11T05:42:32.407Z,7.9
2022-08-11T05:48:16.999Z,5.9
2022-08-11T05:54:03.480Z,9.3
2022-08-11T05:59:52.399Z,6.5
2022-08-11T06:05:46.196Z,6.3
2022-08-11T06:11:45.351Z,7
2022-08-11T06:17:40.338Z,9.9
2022-08-11T06:23:26.039Z,7.1
2022-08-11T06:29:10.414Z,7.3
2022-08-11T06:35:07.310Z,6.4
2022-08-11T06:40:53.823Z,5.9
2022-08-11T06:46:37.652Z,9.8
2022-08-11T06:52:36.572Z,8.8
2022-08-11T06:58:21.302Z,9.9
2022-08-11T07:04:07.481Z,9.1
2022-08-11T07:10:00.392Z,8.5
2022-08-11T07:16:11.903Z,8.8
2022-08-11T07:22:04.052Z,5.9
2022-08-11T07:27:48.864Z,6.6
2022-08-11T07:34:05.978Z,7.7
2022-08-11T07:39:40.635Z,6.8
2022-08-11T07:45:25.861Z,5.3
2022-08-11T07:51:09.610Z,7.2
2022-08-11T07:57:09.720Z,5.1
2022-08-11T08:02:56.916Z,3.6
2022-08-11T08:08:42.817Z,3.6
2022-08-11T08:14:27.351Z,5.2
2022-08-11T08:20:13.367Z,3.1
2022-08-11T08:25:56.895Z,4.2
2022-08-11T08:31:40.735Z,4
2022-08-11T08:37:45.202Z,4.2
2022-08-11T08:43:32.460Z,4.5
2022-08-11T08:49:21.815Z,3.8
2022-08-11T08:55:07.492Z,8.6
2022-08-11T09:00:52.984Z,7.6
2022-08-11T09:06:37.008Z,6.6
2022-08-11T09:12:38.654Z,5.1
2022-08-11T09:18:22.853Z,5.6
2022-08-11T09:24:25.968Z,5.7
2022-08-11T09:30:12.474Z,4.1
2022-08-11T09:35:55.852Z,5.8
2022-08-11T09:41:55.891Z,5.1
2022-08-11T09:47:45.315Z,4.5
2022-08-11T09:53:42.243Z,7.9
2022-08-11T09:59:30.776Z,6.7
2022-08-11T10:05:17.199Z,5.6
2022-08-11T10:11:00.861Z,4.4
2022-08-11T10:16:44.826Z,5.5
2022-08-11T10:22:34.094Z,6.1
2022-08-11T10:28:44.623Z,8.1
2022-08-11T10:34:30.062Z,4.7
2022-08-11T10:40:16.812Z,4.6
2022-08-11T10:46:00.279Z,3.3
2022-08-11T10:51:57.637Z,4.7
2022-08-11T10:58:04.419Z,5.7
2022-08-11T11:03:38.414Z,3
2022-08-11T11:09:25.203Z,4.5
2022-08-11T11:15:19.798Z,3.6
2022-08-11T11:21:06.486Z,4.8
2022-08-11T11:26:54.077Z,5.8
2022-08-11T11:32:49.648Z,6
2022-08-11T11:38:33.474Z,6.4
2022-08-11T11:44:18.306Z,2.2
2022-08-11T11:50:02.458Z,4.7
2022-08-11T11:55:46.578Z,3.8
2022-08-11T12:01:30.523Z,4.1
2022-08-11T12:07:14.690Z,3.9
2022-08-11T12:12:58.572Z,3.7
2022-08-11T12:18:43.207Z,3.8
2022-08-11T12:24:31.717Z,5.7
2022-08-11T12:30:15.991Z,4.7
2022-08-11T12:36:04.041Z,5.2
2022-08-11T12:41:49.926Z,4.4
2022-08-11T12:47:35.056Z,3.5
2022-08-11T12:53:18.955Z,2.4
2022-08-11T12:59:04.199Z,2.6
2022-08-11T13:04:53.191Z,4.6
2022-08-11T13:10:36.857Z,3.8
2022-08-11T13:16:26.263Z,5.2
2022-08-11T13:22:09.768Z,4.2
2022-08-11T13:27:55.790Z,4.1
2022-08-11T13:33:44.274Z,5.8
2022-08-11T13:39:29.770Z,5.4
2022-08-11T13:45:16.878Z,4.8
2022-08-11T13:51:00.884Z,5.8
2022-08-11T13:56:46.578Z,6.6
2022-08-11T14:02:33.112Z,3.6
2022-08-11T14:08:38.290Z,5.9
2022-08-11T14:14:24.835Z,3.6
2022-08-11T14:20:35.545Z,4.1
2022-08-11T14:26:15.075Z,7
2022-08-11T14:31:59.444Z,4.5
2022-08-11T14:37:42.856Z,6.6
2022-08-11T14:44:03.334Z,3.8
2022-08-11T14:49:31.639Z,4.2
2022-08-11T14:55:15.963Z,6.4
2022-08-11T15:01:00.566Z,5.9
2022-08-11T15:06:45.143Z,8.6
2022-08-11T15:12:35.213Z,6.6
2022-08-11T15:18:19.584Z,5.4
2022-08-11T15:24:03.325Z,7
2022-08-11T15:29:48.071Z,4.5
2022-08-11T15:35:41.602Z,5.1
2022-08-11T15:41:27.762Z,4.8
2022-08-11T15:47:12.028Z,4.6
2022-08-11T15:52:58.730Z,4.5
2022-08-11T15:58:45.018Z,3.9
2022-08-11T16:04:29.898Z,3.8
2022-08-11T16:10:21.704Z,2.6
2022-08-11T16:16:05.586Z,5.4
2022-08-11T16:21:50.574Z,2.5
2022-08-11T16:27:35.126Z,4.8
2022-08-11T16:33:49.350Z,3
2022-08-11T16:39:24.786Z,4.2
2022-08-11T16:45:08.894Z,3.9
2022-08-11T16:50:52.864Z,2.7
2022-08-11T16:56:37.588Z,2.8
2022-08-11T17:02:21.670Z,3.1
2022-08-11T17:08:06.974Z,3
2022-08-11T17:13:52.622Z,2.8
2022-08-11T17:20:39.275Z,4.3
2022-08-11T17:25:58.817Z,2.1
2022-08-11T17:31:44.234Z,2.3
2022-08-11T17:37:29.428Z,2.6
2022-08-11T17:43:13.379Z,2.7
2022-08-11T17:48:58.219Z,2.1
2022-08-11T17:54:45.847Z,3
2022-08-11T18:00:29.727Z,4.4
2022-08-11T18:06:16.035Z,6
2022-08-11T18:12:13.324Z,5.9
2022-08-11T18:17:56.790Z,6.9
2022-08-11T18:23:48.580Z,6.1
2022-08-11T18:29:43.448Z,7.2
2022-08-11T18:35:26.772Z,8.5
2022-08-11T18:41:13.723Z,6.4
2022-08-11T18:46:59.551Z,5.8
2022-08-11T18:52:48.003Z,6.1
2022-08-11T18:58:33.353Z,7.3
2022-08-11T19:04:21.726Z,5.5
2022-08-11T19:10:08.867Z,5.3
2022-08-11T19:15:52.610Z,7.5
2022-08-11T19:21:36.543Z,4.7
2022-08-11T19:27:21.156Z,4.5
2022-08-11T19:33:04.727Z,3.6
2022-08-11T19:38:48.195Z,4.1
2022-08-11T19:44:32.879Z,3.6
2022-08-11T19:50:26.263Z,4
2022-08-11T19:56:10.786Z,4.9
2022-08-11T20:02:13.077Z,3.7
2022-08-11T20:07:59.810Z,6.4
2022-08-11T20:13:47.247Z,7.9
2022-08-11T20:19:54.479Z,6.9
2022-08-11T20:25:38.736Z,6.9
2022-08-11T20:31:23.649Z,7.8
2022-08-11T20:37:08.334Z,7.6
2022-08-11T20:42:53.492Z,6.2
2022-08-11T20:48:38.188Z,6.1
2022-08-11T20:54:38.143Z,6
2022-08-11T21:00:40.775Z,7.4
2022-08-11T21:06:35.931Z,8.2
2022-08-11T21:12:21.698Z,8.6
2022-08-11T21:18:09.723Z,6.4
2022-08-11T21:23:53.824Z,7.6
2022-08-11T21:29:38.366Z,7.3
2022-08-11T21:35:22.063Z,7.3
2022-08-11T21:41:06.499Z,3.7
2022-08-11T21:46:50.986Z,4.1
2022-08-11T21:52:34.605Z,5
2022-08-11T21:58:18.239Z,5.3
2022-08-11T22:04:05.763Z,5
2022-08-11T22:09:50.106Z,5.3
2022-08-11T22:15:33.799Z,5.6
2022-08-11T22:21:56.390Z,7.3
2022-08-11T22:27:20.923Z,4
2022-08-11T22:33:04.869Z,5.3
2022-08-11T22:38:49.371Z,5.7
2022-08-11T22:44:32.796Z,5.1
2022-08-11T22:50:16.491Z,3.1
2022-08-11T22:56:00.015Z,3.7
2022-08-11T23:01:57.680Z,4
2022-08-11T23:07:53.091Z,4.2
2022-08-11T23:13:37.369Z,3.4
2022-08-11T23:20:00.007Z,3.3
2022-08-11T23:25:24.499Z,3.8
2022-08-11T23:31:09.714Z,5.1
2022-08-11T23:36:53.366Z,3.7
2022-08-11T23:42:39.032Z,5.1
2022-08-11T23:48:25.835Z,4.1
2022-08-11T23:54:10.584Z,2.9
2022-08-11T23:59:54.071Z,3.7
